Time;durP1;ratioP1;P1;durP2;ratioP2;P2;SDS_P1;SDS_P2;PMS_P1;PMS_P2;Temp;Humidity;BMP_temperature;BMP_pressure;BME280_temperature;BME280_humidity;BME280_pressure;Samples;Min_cycle;Max_cycle;Signal;HPM_P1;HPM_P2
2022/10/06 00:00:39;;;;;;;1.74;1.64;;;;;;;11.72;62.81;101831.14;462969;114;922506;-78
2022/10/06 00:01:43;;;;;;;2.39;2.18;;;;;;;11.72;62.69;101825.68;463129;114;922616;-77
2022/10/06 00:02:46;;;;;;;2.54;2.19;;;;;;;11.71;62.64;101822.09;463046;114;922602;-77
2022/10/06 00:03:49;;;;;;;3.31;1.75;;;;;;;11.71;62.58;101821.25;463109;114;922384;-74
2022/10/06 00:04:52;;;;;;;1.81;1.71;;;;;;;11.70;62.69;101827.75;463080;114;922967;-74
2022/10/06 00:06:00;;;;;;;3.33;2.14;;;;;;;11.71;62.67;101826.72;463058;114;922982;-78
2022/10/06 00:07:03;;;;;;;2.59;1.99;;;;;;;11.71;62.72;101824.83;462925;114;922993;-77
2022/10/06 00:08:06;;;;;;;2.25;2.01;;;;;;;11.70;62.64;101831.33;463147;114;922537;-77
2022/10/06 00:09:17;;;;;;;3.07;1.96;;;;;;;11.70;62.64;101831.33;462900;114;922504;-76
2022/10/06 00:10:21;;;;;;;2.06;1.91;;;;;;;11.69;62.73;101821.43;463109;114;923066;-76
2022/10/06 00:11:24;;;;;;;1.79;1.69;;;;;;;11.71;62.79;101826.72;463105;114;922892;-77
2022/10/06 00:12:27;;;;;;;2.62;1.93;;;;;;;11.71;62.76;101826.72;463067;114;923262;-77
2022/10/06 00:13:31;;;;;;;2.71;2.08;;;;;;;11.71;62.77;101823.98;463143;114;922477;-77
2022/10/06 00:14:34;;;;;;;4.51;1.95;;;;;;;11.71;62.66;101829.45;463081;114;922493;-78
2022/10/06 00:15:38;;;;;;;1.89;1.76;;;;;;;11.70;62.62;101823.13;463173;114;922498;-77
2022/10/06 00:16:41;;;;;;;2.49;2.03;;;;;;;11.70;62.69;101827.75;463106;114;930207;-76
2022/10/06 00:17:44;;;;;;;2.31;1.73;;;;;;;11.69;62.74;101826.05;463262;114;923298;-75
2022/10/06 00:18:47;;;;;;;2.46;1.60;;;;;;;11.70;62.81;101825.86;463321;113;922933;-75
2022/10/06 00:19:50;;;;;;;1.76;1.66;;;;;;;11.71;62.83;101829.45;455930;116;922569;-77
2022/10/06 00:20:58;;;;;;;1.65;1.55;;;;;;;11.71;62.81;101830.30;456276;114;922842;-76
2022/10/06 00:22:01;;;;;;;2.72;1.73;;;;;;;11.72;62.76;101822.95;462953;114;922489;-77
2022/10/06 00:23:04;;;;;;;1.99;1.69;;;;;;;11.72;62.73;101825.68;463094;113;922559;-77
2022/10/06 00:24:07;;;;;;;2.43;1.61;;;;;;;11.70;62.69;101823.13;463122;114;922452;-76
2022/10/06 00:25:13;;;;;;;2.04;1.94;;;;;;;11.71;62.61;101823.98;463700;114;922847;-76
2022/10/06 00:26:16;;;;;;;1.88;1.77;;;;;;;11.69;62.59;101818.70;463479;114;922971;-77
2022/10/06 00:27:20;;;;;;;3.94;1.78;;;;;;;11.70;62.50;101814.09;463621;114;922491;-76
2022/10/06 00:28:22;;;;;;;1.46;1.32;;;;;;;11.70;62.53;101822.28;463747;114;922545;-78
2022/10/06 00:29:26;;;;;;;1.65;1.55;;;;;;;11.70;62.63;101814.94;463680;114;922978;-76
2022/10/06 00:30:30;;;;;;;1.70;1.55;;;;;;;11.69;62.61;101818.70;458154;114;922482;-77
2022/10/06 00:31:33;;;;;;;2.03;1.89;;;;;;;11.71;62.63;101826.72;457864;116;923053;-76
2022/10/06 00:32:36;;;;;;;3.90;1.69;;;;;;;11.68;62.64;101822.50;457901;116;922563;-76
2022/10/06 00:33:40;;;;;;;2.08;1.90;;;;;;;11.68;62.61;101824.38;457935;114;930380;-77
2022/10/06 00:34:43;;;;;;;1.66;1.56;;;;;;;11.68;62.63;101818.91;457943;116;922618;-77
2022/10/06 00:35:46;;;;;;;1.80;1.70;;;;;;;11.69;62.70;101828.78;457947;114;922851;-76
2022/10/06 00:36:49;;;;;;;2.73;2.22;;;;;;;11.68;62.74;101813.45;457901;116;922406;-76
2022/10/06 00:37:52;;;;;;;2.12;1.89;;;;;;;11.68;62.77;101810.72;458019;116;922622;-77
2022/10/06 00:38:55;;;;;;;2.57;1.87;;;;;;;11.67;62.77;101807.14;457895;116;923004;-76
2022/10/06 00:39:58;;;;;;;2.11;1.91;;;;;;;11.68;62.81;101799.79;457982;116;922480;-77
2022/10/06 00:41:02;;;;;;;2.50;1.76;;;;;;;11.68;62.76;101799.79;457996;114;922575;-77
2022/10/06 00:42:05;;;;;;;2.12;1.93;;;;;;;11.67;62.80;101801.67;457889;116;922586;-76
2022/10/06 00:43:37;;;;;;;2.54;1.76;;;;;;;11.68;62.79;101805.25;457991;116;922623;-77
2022/10/06 00:44:40;;;;;;;2.52;1.61;;;;;;;11.69;62.74;101801.45;457761;116;923115;-77
2022/10/06 00:45:47;;;;;;;2.02;1.76;;;;;;;11.70;62.85;101805.89;458032;114;922693;-77
2022/10/06 00:46:52;;;;;;;2.27;2.08;;;;;;;11.71;62.87;101804.86;457826;116;923027;-78
2022/10/06 00:47:59;;;;;;;2.87;2.13;;;;;;;11.73;62.95;101804.67;457799;116;922908;-77
2022/10/06 00:49:11;;;;;;;1.80;1.70;;;;;;;11.73;62.85;101799.20;457721;116;923067;-78
2022/10/06 00:50:15;;;;;;;1.79;1.64;;;;;;;11.73;62.78;101804.67;457771;116;923033;-77
2022/10/06 00:51:19;;;;;;;1.98;1.88;;;;;;;11.73;62.81;101802.82;457910;116;922522;-77
2022/10/06 00:52:26;;;;;;;1.98;1.78;;;;;;;11.74;62.81;101801.79;459877;114;922569;-77
2022/10/06 00:53:29;;;;;;;2.62;1.86;;;;;;;11.73;62.66;101799.20;463534;114;923134;-78
2022/10/06 00:54:34;;;;;;;2.14;1.97;;;;;;;11.73;62.69;101800.09;463594;114;922818;-76
2022/10/06 00:55:38;;;;;;;2.23;1.91;;;;;;;11.74;62.70;101800.94;463478;113;922581;-77
2022/10/06 00:56:41;;;;;;;2.69;2.02;;;;;;;11.74;62.79;101801.79;463663;114;922905;-77
2022/10/06 00:57:45;;;;;;;2.11;1.91;;;;;;;11.74;62.80;101798.20;457899;115;922852;-78
2022/10/06 00:58:49;;;;;;;2.69;1.99;;;;;;;11.75;62.80;101791.67;458132;114;922623;-78
2022/10/06 00:59:52;;;;;;;3.44;1.85;;;;;;;11.75;62.80;101791.67;463552;114;922472;-78
2022/10/06 01:00:56;;;;;;;1.96;1.84;;;;;;;11.75;62.82;101784.33;463604;114;922806;-76
2022/10/06 01:02:02;;;;;;;2.46;1.86;;;;;;;11.76;62.83;101785.18;463610;114;922488;-76
2022/10/06 01:03:18;;;;;;;1.92;1.81;;;;;;;11.77;62.90;101786.88;463512;114;923019;-77
2022/10/06 01:04:23;;;;;;;2.30;1.87;;;;;;;11.78;62.89;101792.16;461910;113;922872;-77
2022/10/06 01:05:29;;;;;;;1.98;1.64;;;;;;;11.79;62.74;101795.74;446421;118;923046;-77
2022/10/06 01:06:44;;;;;;;2.03;1.67;;;;;;;11.78;62.82;101792.16;446444;118;923070;-76
2022/10/06 01:07:47;;;;;;;2.09;1.87;;;;;;;11.79;62.83;101788.39;446385;118;922955;-77
2022/10/06 01:08:52;;;;;;;3.02;1.98;;;;;;;11.80;62.87;101789.24;446679;118;922956;-76
2022/10/06 01:09:56;;;;;;;1.81;1.71;;;;;;;11.81;62.87;101786.30;446555;118;922583;-76
2022/10/06 01:10:59;;;;;;;2.19;2.00;;;;;;;11.82;62.78;101787.98;446644;118;922927;-77
2022/10/06 01:12:06;;;;;;;1.93;1.83;;;;;;;11.82;62.68;101778.94;446494;118;922512;-77
2022/10/06 01:13:12;;;;;;;1.73;1.63;;;;;;;11.80;62.62;101779.13;446483;118;922818;-77
2022/10/06 01:14:17;;;;;;;2.14;2.02;;;;;;;11.79;62.63;101777.46;446537;118;923045;-77
2022/10/06 01:15:21;;;;;;;2.41;2.14;;;;;;;11.78;62.52;101780.38;446508;118;922501;-77
2022/10/06 01:16:25;;;;;;;2.46;2.28;;;;;;;11.77;62.53;101782.26;453562;116;922583;-76
2022/10/06 01:17:38;;;;;;;2.19;2.02;;;;;;;11.74;62.60;101777.20;446440;118;923049;-76
2022/10/06 01:18:45;;;;;;;2.41;2.24;;;;;;;11.73;62.68;101775.50;454185;116;922829;-76
2022/10/06 01:20:10;;;;;;;2.54;2.38;;;;;;;11.70;62.76;101778.56;446375;118;922996;-76
2022/10/06 01:21:23;;;;;;;2.59;2.40;;;;;;;11.68;62.83;101773.31;454158;116;922781;-76
2022/10/06 01:22:34;;;;;;;2.86;2.66;;;;;;;11.65;62.85;101778.30;446418;118;923079;-77
2022/10/06 01:23:38;;;;;;;2.92;2.75;;;;;;;11.61;62.93;101787.93;454197;116;922935;-77
2022/10/06 01:24:42;;;;;;;2.92;2.72;;;;;;;11.55;62.98;101781.34;446551;118;922572;-77
2022/10/06 01:25:45;;;;;;;3.05;2.85;;;;;;;11.52;63.03;101789.91;454283;116;922791;-77
2022/10/06 01:26:51;;;;;;;3.05;2.84;;;;;;;11.49;63.15;101793.04;446587;118;922617;-78
2022/10/06 01:27:56;;;;;;;3.47;3.24;;;;;;;11.45;63.15;101790.89;454125;116;923571;-76
2022/10/06 01:29:01;;;;;;;3.41;3.12;;;;;;;11.42;63.19;101791.25;446403;118;923021;-77
2022/10/06 01:30:07;;;;;;;3.62;3.33;;;;;;;11.38;63.30;101793.53;450447;116;922559;-77
2022/10/06 01:31:10;;;;;;;3.48;3.19;;;;;;;11.36;63.43;101784.67;442989;119;923032;-77
2022/10/06 01:32:13;;;;;;;4.08;3.09;;;;;;;11.33;63.65;101782.33;446683;118;922611;-76
2022/10/06 01:33:17;;;;;;;3.47;3.26;;;;;;;11.31;63.69;101787.13;446611;118;922516;-77
2022/10/06 01:34:20;;;;;;;3.26;3.06;;;;;;;11.31;63.77;101789.86;446568;116;922820;-77
2022/10/06 01:35:23;;;;;;;3.58;3.31;;;;;;;11.29;63.90;101792.80;446590;118;930567;-76
2022/10/06 01:36:26;;;;;;;3.59;3.28;;;;;;;11.30;64.11;101793.65;446651;118;922851;-75
2022/10/06 01:37:29;;;;;;;3.58;3.13;;;;;;;11.30;64.06;101790.92;446578;118;922565;-76
2022/10/06 01:38:32;;;;;;;3.49;3.23;;;;;;;11.28;64.12;101795.71;446610;118;922478;-75
2022/10/06 01:39:37;;;;;;;3.42;3.19;;;;;;;11.28;64.30;101807.48;446397;118;923028;-77
2022/10/06 01:40:41;;;;;;;3.49;2.84;;;;;;;11.26;64.40;101815.00;446581;118;923064;-76
2022/10/06 01:41:46;;;;;;;3.40;3.02;;;;;;;11.26;64.40;101804.08;446619;118;922986;-76
2022/10/06 01:42:48;;;;;;;3.04;2.84;;;;;;;11.26;64.44;101804.08;446455;118;923054;-76
2022/10/06 01:43:52;;;;;;;3.27;3.08;;;;;;;11.26;64.53;101812.27;440703;120;922597;-76
2022/10/06 01:44:56;;;;;;;3.21;3.01;;;;;;;11.26;64.56;101811.42;440981;118;923495;-76
2022/10/06 01:45:59;;;;;;;3.03;2.83;;;;;;;11.25;64.58;101807.84;446601;118;922558;-77
2022/10/06 01:47:04;;;;;;;3.09;2.83;;;;;;;11.25;64.53;101816.03;446607;118;923092;-76
2022/10/06 01:48:08;;;;;;;3.95;2.89;;;;;;;11.24;64.57;101816.25;446437;118;923035;-76
2022/10/06 01:49:11;;;;;;;3.44;3.22;;;;;;;11.20;64.66;101810.30;446614;118;922917;-76
2022/10/06 01:50:14;;;;;;;3.24;3.04;;;;;;;11.19;64.59;101803.13;446565;118;922565;-77
2022/10/06 01:51:17;;;;;;;2.98;2.79;;;;;;;11.17;64.66;101807.96;446622;118;930437;-77
2022/10/06 01:52:20;;;;;;;2.95;2.71;;;;;;;11.16;64.79;101799.95;448973;116;922518;-77
2022/10/06 01:53:23;;;;;;;3.06;2.79;;;;;;;11.15;64.86;101798.25;440850;120;923642;-78
2022/10/06 01:54:26;;;;;;;2.99;2.79;;;;;;;11.14;64.86;101796.55;441266;116;923207;-77
2022/10/06 01:55:30;;;;;;;4.61;3.09;;;;;;;11.13;64.98;101803.92;454274;116;922635;-78
2022/10/06 01:56:34;;;;;;;2.81;2.58;;;;;;;11.13;65.04;101793.00;448258;118;922709;-77
2022/10/06 01:57:39;;;;;;;3.01;2.81;;;;;;;11.13;65.09;101798.46;448507;116;922631;-78
2022/10/06 01:58:42;;;;;;;2.97;2.77;;;;;;;11.12;65.14;101799.48;454223;116;922564;-77
2022/10/06 01:59:46;;;;;;;3.14;2.75;;;;;;;11.10;65.13;101804.28;454319;116;923510;-77
2022/10/06 02:00:51;;;;;;;3.49;3.19;;;;;;;11.09;65.29;101799.84;449993;116;923129;-79
2022/10/06 02:01:54;;;;;;;2.74;2.64;;;;;;;11.08;65.23;101803.61;446677;118;922496;-76
2022/10/06 02:02:58;;;;;;;4.31;3.09;;;;;;;11.07;65.23;101809.28;446674;118;922701;-78
2022/10/06 02:04:02;;;;;;;2.81;2.66;;;;;;;11.04;65.16;101802.30;446616;118;923017;-76
2022/10/06 02:05:06;;;;;;;3.12;2.92;;;;;;;11.00;65.22;101806.45;446612;118;922922;-78
2022/10/06 02:06:11;;;;;;;2.92;2.72;;;;;;;10.99;65.30;101812.94;440234;120;922714;-78
2022/10/06 02:07:16;;;;;;;2.93;2.67;;;;;;;10.98;65.32;101805.78;450042;116;923089;-79
2022/10/06 02:08:21;;;;;;;3.03;2.78;;;;;;;10.95;65.31;101805.31;457889;116;922464;-78
2022/10/06 02:09:24;;;;;;;2.89;2.69;;;;;;;10.93;65.35;101813.68;458011;116;922578;-76
2022/10/06 02:10:29;;;;;;;3.41;3.15;;;;;;;10.91;65.45;101813.05;449825;118;923029;-76
2022/10/06 02:11:34;;;;;;;3.13;2.93;;;;;;;10.89;65.47;101812.38;450251;116;930571;-78
2022/10/06 02:12:38;;;;;;;2.76;2.56;;;;;;;10.87;65.46;101817.16;457705;116;930948;-77
2022/10/06 02:13:43;;;;;;;3.02;2.82;;;;;;;10.86;65.62;101812.76;457806;116;922843;-77
2022/10/06 02:14:46;;;;;;;3.24;3.02;;;;;;;10.85;65.76;101814.64;457992;116;922481;-77
2022/10/06 02:15:50;;;;;;;2.68;2.56;;;;;;;10.85;65.81;101816.52;459823;114;922538;-77
2022/10/06 02:16:53;;;;;;;3.21;2.69;;;;;;;10.84;65.84;101815.66;457434;116;922650;-78
2022/10/06 02:17:57;;;;;;;2.99;2.79;;;;;;;10.82;65.79;101823.17;457731;114;923084;-76
2022/10/06 02:19:02;;;;;;;5.29;2.63;;;;;;;10.81;65.88;101829.66;463488;114;922544;-76
2022/10/06 02:20:05;;;;;;;3.08;2.71;;;;;;;10.80;65.84;101821.69;463669;114;922473;-76
2022/10/06 02:21:14;;;;;;;3.11;2.91;;;;;;;10.77;65.89;101828.34;463602;113;922938;-76
2022/10/06 02:22:17;;;;;;;2.90;2.70;;;;;;;10.76;65.92;101834.83;463534;114;922657;-77
2022/10/06 02:23:22;;;;;;;3.28;2.92;;;;;;;10.75;66.05;101829.58;463491;114;922915;-77
2022/10/06 02:24:25;;;;;;;3.13;2.93;;;;;;;10.75;66.19;101824.13;463651;114;922562;-78
2022/10/06 02:25:28;;;;;;;2.92;2.72;;;;;;;10.75;66.30;101826.86;463414;113;922576;-76
2022/10/06 02:26:31;;;;;;;2.73;2.55;;;;;;;10.76;66.27;101836.70;463047;114;922416;-76
2022/10/06 02:27:35;;;;;;;4.52;3.47;;;;;;;10.75;66.33;101829.58;463025;114;922851;-76
2022/10/06 02:28:38;;;;;;;2.69;2.53;;;;;;;10.76;66.46;101834.83;463084;114;923075;-77
2022/10/06 02:29:41;;;;;;;3.06;2.85;;;;;;;10.76;66.58;101832.10;463333;114;922475;-76
2022/10/06 02:30:45;;;;;;;3.46;3.16;;;;;;;10.77;66.60;101832.95;465409;114;923080;-77
2022/10/06 02:31:48;;;;;;;3.13;2.88;;;;;;;10.78;66.69;101835.50;463961;114;923008;-76
2022/10/06 02:32:51;;;;;;;3.04;2.65;;;;;;;10.77;66.59;101835.68;462990;114;922448;-76
2022/10/06 02:33:54;;;;;;;3.24;3.03;;;;;;;10.76;66.61;101833.98;453900;115;923112;-77
2022/10/06 02:34:59;;;;;;;3.51;3.06;;;;;;;10.75;66.56;101835.04;446449;117;922871;-77
2022/10/06 02:36:03;;;;;;;4.07;2.87;;;;;;;10.73;66.47;101835.22;454158;114;922957;-77
2022/10/06 02:37:06;;;;;;;2.98;2.72;;;;;;;10.72;66.65;101829.94;462901;114;922590;-78
2022/10/06 02:38:16;;;;;;;3.46;3.05;;;;;;;10.71;66.69;101833.69;463018;114;930467;-76
2022/10/06 02:39:50;;;;;;;2.81;2.61;;;;;;;10.70;66.66;101831.98;462890;114;923056;-77
2022/10/06 02:40:54;;;;;;;3.58;3.27;;;;;;;10.67;66.89;101835.95;463060;114;923435;-75
2022/10/06 02:41:57;;;;;;;3.72;3.25;;;;;;;10.66;66.84;101834.25;463055;114;923041;-75
2022/10/06 02:43:00;;;;;;;3.66;3.36;;;;;;;10.64;67.01;101841.76;463083;114;922554;-76
2022/10/06 02:44:04;;;;;;;3.44;3.24;;;;;;;10.63;66.92;101841.97;463086;114;922548;-76
2022/10/06 02:45:08;;;;;;;3.19;2.99;;;;;;;10.62;66.95;101840.27;462929;114;923013;-76
2022/10/06 02:46:13;;;;;;;3.02;2.81;;;;;;;10.61;67.00;101838.56;463004;114;922835;-76
2022/10/06 02:47:18;;;;;;;3.51;3.17;;;;;;;10.60;67.04;101836.86;462465;114;923037;-76
2022/10/06 02:48:26;;;;;;;3.06;2.86;;;;;;;10.59;67.11;101827.83;463015;114;922514;-76
2022/10/06 02:49:30;;;;;;;3.22;3.02;;;;;;;10.61;67.16;101824.93;462832;114;930547;-78
2022/10/06 02:50:34;;;;;;;3.57;3.29;;;;;;;10.60;67.24;101831.41;462955;114;922478;-76
2022/10/06 02:51:37;;;;;;;4.83;2.90;;;;;;;10.59;67.18;101833.28;463003;114;922856;-76
2022/10/06 02:52:41;;;;;;;2.93;2.75;;;;;;;10.56;67.16;101820.03;468262;112;930457;-76
2022/10/06 02:53:51;;;;;;;2.99;2.76;;;;;;;10.56;67.11;101813.73;471156;112;923064;-76
2022/10/06 02:54:52;;;;;;;3.23;3.03;;;;;;;10.55;67.07;101814.75;470874;112;922984;-75
2022/10/06 02:56:01;;;;;;;3.79;3.26;;;;;;;10.53;67.03;101811.38;471319;112;922711;-76
2022/10/06 02:57:04;;;;;;;3.18;2.95;;;;;;;10.51;67.16;101813.44;467206;112;923144;-77
2022/10/06 02:58:08;;;;;;;2.67;2.53;;;;;;;10.48;67.19;101819.24;463163;114;922613;-76
2022/10/06 02:59:11;;;;;;;2.80;2.60;;;;;;;10.48;67.29;101816.52;454089;116;922530;-76
2022/10/06 03:00:15;;;;;;;3.28;3.05;;;;;;;10.48;67.37;101816.52;454414;114;922970;-76
2022/10/06 03:01:23;;;;;;;4.69;3.11;;;;;;;10.49;67.47;101823.67;462520;114;922982;-76
2022/10/06 03:02:29;;;;;;;3.01;2.79;;;;;;;10.50;67.64;101822.64;462985;114;923001;-76
2022/10/06 03:03:36;;;;;;;2.62;2.44;;;;;;;10.51;67.55;101821.61;462945;114;922757;-77
2022/10/06 03:04:38;;;;;;;2.62;2.42;;;;;;;10.51;67.53;101824.34;462908;114;923179;-76
2022/10/06 03:05:41;;;;;;;2.84;2.63;;;;;;;10.52;67.53;101826.89;462944;114;923068;-77
2022/10/06 03:06:45;;;;;;;2.74;2.45;;;;;;;10.51;67.50;101822.47;463125;114;922948;-76
2022/10/06 03:07:49;;;;;;;2.64;2.44;;;;;;;10.50;67.53;101822.64;462635;114;922802;-77
2022/10/06 03:09:01;;;;;;;3.17;2.90;;;;;;;10.50;67.46;101822.64;463129;114;922673;-78
2022/10/06 03:10:05;;;;;;;2.68;2.48;;;;;;;10.48;67.53;101831.00;462888;114;923173;-78
2022/10/06 03:11:10;;;;;;;3.22;2.82;;;;;;;10.47;67.44;101833.93;462922;114;922562;-78
2022/10/06 03:12:14;;;;;;;2.99;2.43;;;;;;;10.44;67.44;101824.22;462845;114;922592;-77
2022/10/06 03:13:18;;;;;;;3.01;2.81;;;;;;;10.43;67.40;101826.10;462794;114;922989;-77
2022/10/06 03:14:22;;;;;;;2.65;2.45;;;;;;;10.42;67.40;101829.00;463045;114;922848;-77
2022/10/06 03:15:25;;;;;;;2.89;2.52;;;;;;;10.41;67.47;101830.91;462943;114;922881;-77
2022/10/06 03:16:32;;;;;;;3.06;2.86;;;;;;;10.39;67.45;101824.78;462999;114;922707;-77
2022/10/06 03:17:35;;;;;;;2.87;2.67;;;;;;;10.39;67.51;101832.11;462924;114;922933;-77
2022/10/06 03:18:42;;;;;;;3.40;3.15;;;;;;;10.36;67.45;101830.61;462891;114;922524;-76
2022/10/06 03:19:46;;;;;;;3.59;2.67;;;;;;;10.36;67.46;101822.44;462751;114;930520;-77
2022/10/06 03:20:49;;;;;;;3.53;2.51;;;;;;;10.34;67.51;101827.21;463051;114;923014;-76
2022/10/06 03:21:53;;;;;;;2.94;2.74;;;;;;;10.32;67.55;101829.27;463017;114;922529;-77
2022/10/06 03:22:56;;;;;;;5.25;2.84;;;;;;;10.33;67.67;101825.51;462933;114;930312;-76
2022/10/06 03:24:00;;;;;;;3.21;2.87;;;;;;;10.34;67.66;101831.81;463047;114;930516;-78
2022/10/06 03:25:03;;;;;;;2.99;2.79;;;;;;;10.32;67.73;101826.53;463049;114;922469;-77
2022/10/06 03:26:08;;;;;;;2.63;2.48;;;;;;;10.33;67.75;101838.29;459957;114;923120;-77
2022/10/06 03:27:11;;;;;;;2.56;2.34;;;;;;;10.32;67.79;101831.98;450005;118;923265;-76
2022/10/06 03:28:15;;;;;;;3.81;3.45;;;;;;;10.32;67.91;101831.98;450250;116;923497;-76
2022/10/06 03:29:19;;;;;;;3.05;2.85;;;;;;;10.33;67.94;101830.97;457823;116;922574;-77
2022/10/06 03:30:24;;;;;;;2.92;2.72;;;;;;;10.35;67.96;101838.97;462397;114;930525;-77
2022/10/06 03:31:27;;;;;;;3.19;2.97;;;;;;;10.34;67.90;101832.66;462078;113;922789;-77
2022/10/06 03:32:31;;;;;;;3.98;3.52;;;;;;;10.33;67.87;101830.97;457877;116;922985;-77
2022/10/06 03:33:34;;;;;;;4.78;3.26;;;;;;;10.32;67.86;101831.98;458195;114;923138;-74
2022/10/06 03:34:38;;;;;;;4.19;3.82;;;;;;;10.32;67.86;101831.14;457663;116;922562;-77
2022/10/06 03:35:43;;;;;;;5.80;3.68;;;;;;;10.29;67.80;101835.09;450508;116;922669;-77
2022/10/06 03:36:46;;;;;;;4.14;3.81;;;;;;;10.29;67.90;101836.97;453924;115;922492;-76
2022/10/06 03:37:49;;;;;;;3.82;3.52;;;;;;;10.29;67.89;101832.37;461727;114;922535;-77
2022/10/06 03:38:53;;;;;;;3.98;3.44;;;;;;;10.28;67.96;101843.45;466093;114;922504;-77
2022/10/06 03:39:56;;;;;;;4.21;3.36;;;;;;;10.27;68.01;101834.41;466055;114;922665;-76
2022/10/06 03:41:07;;;;;;;3.70;3.40;;;;;;;10.27;68.06;101839.02;465888;114;922969;-76
2022/10/06 03:42:10;;;;;;;3.26;2.98;;;;;;;10.25;68.10;101844.67;465896;114;923099;-76
2022/10/06 03:43:14;;;;;;;4.01;3.64;;;;;;;10.25;68.11;101841.95;466083;114;923030;-77
2022/10/06 03:44:17;;;;;;;3.97;3.64;;;;;;;10.25;68.29;101841.09;466117;114;922878;-78
2022/10/06 03:45:20;;;;;;;6.84;3.28;;;;;;;10.26;68.37;101842.77;466093;114;922463;-77
2022/10/06 03:46:26;;;;;;;4.24;3.41;;;;;;;10.28;68.42;101840.72;466065;114;922545;-76
2022/10/06 03:47:30;;;;;;;4.48;3.98;;;;;;;10.25;68.40;101841.95;465924;114;923036;-77
2022/10/06 03:48:34;;;;;;;3.87;3.43;;;;;;;10.25;68.45;101841.09;466025;114;923120;-76
2022/10/06 03:49:37;;;;;;;3.91;3.61;;;;;;;10.25;68.52;101844.67;465966;114;923028;-76
2022/10/06 03:50:42;;;;;;;4.12;3.37;;;;;;;10.27;68.62;101844.47;465895;114;930546;-77
2022/10/06 03:51:46;;;;;;;4.67;3.48;;;;;;;10.28;68.72;101841.57;465805;114;923051;-76
2022/10/06 03:52:51;;;;;;;3.56;3.26;;;;;;;10.30;68.88;101839.52;458021;114;922951;-76
2022/10/06 03:53:54;;;;;;;3.49;3.29;;;;;;;10.32;68.91;101842.05;450036;118;922588;-77
2022/10/06 03:54:57;;;;;;;3.39;3.09;;;;;;;10.34;68.92;101843.57;450242;116;922576;-76
2022/10/06 03:56:13;;;;;;;3.84;3.54;;;;;;;10.36;69.02;101838.80;457936;116;930503;-77
2022/10/06 03:57:16;;;;;;;3.83;3.54;;;;;;;10.38;69.03;101844.04;457813;116;923026;-75
2022/10/06 03:58:19;;;;;;;4.17;3.02;;;;;;;10.40;68.91;101841.98;457995;116;923209;-76
2022/10/06 03:59:22;;;;;;;4.56;3.19;;;;;;;10.40;68.91;101841.98;458034;116;922511;-78
2022/10/06 04:00:26;;;;;;;3.98;3.63;;;;;;;10.40;68.97;101844.72;457885;116;922910;-76
2022/10/06 04:01:35;;;;;;;3.92;3.58;;;;;;;10.39;68.83;101843.02;457918;116;922449;-76
2022/10/06 04:02:38;;;;;;;3.74;3.44;;;;;;;10.38;68.84;101849.49;457846;116;922747;-76
2022/10/06 04:03:42;;;;;;;4.32;3.30;;;;;;;10.36;68.83;101841.52;457996;116;923026;-76
2022/10/06 04:04:45;;;;;;;3.79;3.23;;;;;;;10.36;68.86;101846.13;457978;116;922541;-75
2022/10/06 04:05:52;;;;;;;3.25;3.01;;;;;;;10.35;69.05;101842.55;457917;116;930395;-77
2022/10/06 04:06:55;;;;;;;4.01;3.31;;;;;;;10.37;69.07;101839.61;457863;116;923032;-75
2022/10/06 04:07:59;;;;;;;3.69;3.11;;;;;;;10.38;69.14;101842.16;458020;116;922566;-76
2022/10/06 04:09:03;;;;;;;4.21;3.56;;;;;;;10.40;69.12;101845.57;458006;116;922612;-75
2022/10/06 04:10:08;;;;;;;3.47;3.21;;;;;;;10.42;69.12;101842.64;457806;116;923074;-76
2022/10/06 04:11:23;;;;;;;3.98;3.51;;;;;;;10.43;69.25;101834.28;457793;116;922561;-76
2022/10/06 04:12:26;;;;;;;4.51;3.24;;;;;;;10.44;69.08;101844.16;457635;116;930502;-76
2022/10/06 04:13:29;;;;;;;4.01;3.71;;;;;;;10.44;69.01;101844.16;449944;117;922699;-77
2022/10/06 04:14:32;;;;;;;5.67;3.89;;;;;;;10.42;68.94;101843.48;450270;116;923195;-77
2022/10/06 04:15:36;;;;;;;4.76;4.04;;;;;;;10.42;68.99;101848.09;458859;114;922506;-78
2022/10/06 04:16:42;;;;;;;4.50;3.89;;;;;;;10.41;69.00;101844.55;465988;114;922599;-75
2022/10/06 04:17:45;;;;;;;7.23;3.92;;;;;;;10.40;68.97;101848.30;465457;114;923015;-75
2022/10/06 04:18:50;;;;;;;5.16;4.70;;;;;;;10.39;68.87;101843.86;466078;114;922846;-77
2022/10/06 04:19:53;;;;;;;4.06;3.76;;;;;;;10.38;68.88;101850.34;465823;114;922565;-77
2022/10/06 04:20:59;;;;;;;4.09;3.70;;;;;;;10.38;68.82;101847.62;466018;114;922522;-76
2022/10/06 04:22:02;;;;;;;3.42;2.97;;;;;;;10.38;68.81;101852.22;465875;114;923097;-76
2022/10/06 04:23:07;;;;;;;4.10;3.69;;;;;;;10.37;68.78;101853.24;465995;114;923030;-77
2022/10/06 04:24:10;;;;;;;3.66;3.30;;;;;;;10.36;68.79;101852.42;465959;114;922938;-77
2022/10/06 04:25:16;;;;;;;3.96;3.60;;;;;;;10.35;68.79;101848.00;465805;114;923123;-77
2022/10/06 04:26:21;;;;;;;5.48;3.80;;;;;;;10.35;68.93;101853.45;465884;113;922797;-77
2022/10/06 04:27:26;;;;;;;3.98;3.57;;;;;;;10.36;68.85;101855.16;465889;114;922540;-78
2022/10/06 04:28:42;;;;;;;3.33;3.09;;;;;;;10.36;68.91;101855.16;439625;114;923248;-77
2022/10/06 04:29:46;;;;;;;4.04;3.70;;;;;;;10.37;68.94;101862.27;464045;114;923009;-77
2022/10/06 04:30:56;;;;;;;3.74;3.49;;;;;;;10.38;69.05;101863.13;457984;116;922502;-76
2022/10/06 04:32:00;;;;;;;3.76;3.46;;;;;;;10.40;69.14;101866.53;457511;116;922944;-75
2022/10/06 04:33:08;;;;;;;3.49;3.17;;;;;;;10.41;69.18;101863.63;457610;116;930910;-76
2022/10/06 04:34:14;;;;;;;4.87;3.71;;;;;;;10.43;69.23;101864.27;458025;114;922824;-76
2022/10/06 04:35:19;;;;;;;4.17;3.75;;;;;;;10.45;69.33;101851.32;457833;116;923029;-77
2022/10/06 04:36:25;;;;;;;4.11;3.81;;;;;;;10.48;69.30;101851.96;457941;116;922638;-75
2022/10/06 04:37:28;;;;;;;4.09;3.46;;;;;;;10.51;69.32;101851.61;457738;116;923032;-77
2022/10/06 04:38:33;;;;;;;4.13;3.74;;;;;;;10.53;69.39;101855.02;457902;116;922992;-75
2022/10/06 04:39:37;;;;;;;3.81;3.47;;;;;;;10.56;69.42;101862.81;457897;116;922458;-77
2022/10/06 04:40:40;;;;;;;4.05;3.69;;;;;;;10.61;69.35;101854.92;457946;116;922518;-76
2022/10/06 04:41:46;;;;;;;3.63;3.33;;;;;;;10.64;69.35;101860.03;457937;116;922461;-77
2022/10/06 04:42:51;;;;;;;3.61;3.33;;;;;;;10.69;69.34;101860.33;457548;116;923494;-75
2022/10/06 04:43:55;;;;;;;3.54;3.17;;;;;;;10.73;69.30;101857.04;458040;116;922953;-76
2022/10/06 04:44:58;;;;;;;4.25;3.61;;;;;;;10.76;69.31;101859.38;458018;116;922689;-76
2022/10/06 04:46:02;;;;;;;3.58;3.26;;;;;;;10.81;69.31;101864.28;458035;116;922869;-76
2022/10/06 04:47:07;;;;;;;3.99;3.54;;;;;;;10.85;69.24;101863.75;455116;116;922867;-76
2022/10/06 04:48:10;;;;;;;3.35;3.02;;;;;;;10.90;69.28;101859.61;458001;116;922891;-78
2022/10/06 04:49:13;;;;;;;3.39;3.09;;;;;;;10.95;69.13;101866.20;458008;114;922856;-77
2022/10/06 04:50:18;;;;;;;3.89;3.56;;;;;;;10.99;69.14;101863.94;457261;116;923673;-77
2022/10/06 04:51:25;;;;;;;3.34;3.02;;;;;;;11.02;69.01;101858.98;455215;116;922934;-77
2022/10/06 04:52:28;;;;;;;3.28;3.01;;;;;;;11.05;68.85;101855.86;457787;116;923053;-75
2022/10/06 04:53:32;;;;;;;3.19;2.92;;;;;;;11.10;68.76;101860.75;458028;116;923483;-76
2022/10/06 04:54:35;;;;;;;3.68;2.96;;;;;;;11.13;68.74;101855.78;457978;116;922984;-77
2022/10/06 04:55:40;;;;;;;3.86;3.06;;;;;;;11.15;68.56;101852.84;457879;116;922470;-76
2022/10/06 04:56:43;;;;;;;3.66;3.32;;;;;;;11.18;68.46;101853.34;457889;116;922487;-76
2022/10/06 04:57:46;;;;;;;4.38;3.09;;;;;;;11.21;68.34;101857.55;457809;116;930864;-76